Time;durP1;ratioP1;P1;durP2;ratioP2;P2;SDS_P1;SDS_P2;PMS_P1;PMS_P2;Temp;Humidity;BMP_temperature;BMP_pressure;BME280_temperature;BME280_humidity;BME280_pressure;Samples;Min_cycle;Max_cycle;Signal;HPM_P1;HPM_P2
2022/12/26 11:57:21;;;;;;;0.90;0.70;;;9.10;99.90;;;;;;5246988;22;1322525;-72
2022/12/26 11:59:53;;;;;;;1.20;0.90;;;9.10;99.90;;;;;;5344608;23;20312;-72
2022/12/26 12:11:01;;;;;;;1.37;0.77;;;9.10;99.90;;;;;;4964826;28;20533;-72
2022/12/26 12:14:00;;;;;;;2.30;1.00;;;9.10;99.90;;;;;;4964075;28;20449;-71
2022/12/26 12:16:54;;;;;;;1.20;0.60;;;9.10;99.90;;;;;;4962156;28;20451;-72
2022/12/26 12:19:43;;;;;;;1.53;1.00;;;9.10;99.90;;;;;;4960489;28;20908;-72
2022/12/26 12:22:26;;;;;;;1.20;0.80;;;9.10;99.90;;;;;;4970518;28;20453;-70
2022/12/26 12:25:25;;;;;;;2.53;1.77;;;9.10;99.90;;;;;;4961768;28;20478;-72
2022/12/26 12:28:03;;;;;;;2.47;1.27;;;9.10;99.90;;;;;;4958328;28;21083;-72
2022/12/26 12:30:37;;;;;;;1.57;0.80;;;9.10;99.90;;;;;;4966160;28;20492;-72
2022/12/26 12:33:21;;;;;;;0.80;0.60;;;9.10;99.90;;;;;;4965746;28;20443;-73
2022/12/26 12:36:06;;;;;;;0.93;0.90;;;9.10;99.90;;;;;;4962426;28;20578;-72
2022/12/26 12:38:44;;;;;;;2.70;1.37;;;9.10;99.90;;;;;;4982753;28;20458;-73
2022/12/26 12:41:44;;;;;;;0.90;0.80;;;9.10;99.90;;;;;;4964050;28;20458;-72
2022/12/26 12:44:19;;;;;;;3.73;1.00;;;9.10;99.90;;;;;;4959571;28;20538;-73
2022/12/26 12:47:00;;;;;;;1.40;1.10;;;9.10;99.90;;;;;;4967028;28;20509;-72
2022/12/26 12:49:49;;;;;;;3.07;0.97;;;9.10;99.90;;;;;;4966245;28;21031;-73
2022/12/26 12:52:30;;;;;;;1.67;0.80;;;9.10;99.90;;;;;;4966430;28;20494;-73
2022/12/26 12:55:24;;;;;;;1.20;1.10;;;9.10;99.90;;;;;;4963242;28;20470;-72
2022/12/26 12:57:58;;;;;;;1.00;0.80;;;9.10;99.90;;;;;;4970943;28;20469;-73
2022/12/26 13:00:33;;;;;;;1.63;0.90;;;9.10;99.90;;;;;;4935354;28;20963;-73
2022/12/26 13:03:11;;;;;;;1.10;0.83;;;9.10;99.90;;;;;;4943199;28;20443;-72
2022/12/26 13:05:44;;;;;;;2.00;0.93;;;9.10;99.90;;;;;;4967139;28;20490;-72
2022/12/26 13:08:18;;;;;;;0.80;0.60;;;9.10;99.90;;;;;;4965410;28;20448;-72
2022/12/26 13:10:52;;;;;;;0.80;0.67;;;9.10;99.90;;;;;;4963126;28;20478;-72
2022/12/26 13:13:27;;;;;;;1.50;1.10;;;9.10;99.90;;;;;;4954810;28;21042;-72
2022/12/26 13:16:00;;;;;;;1.20;0.73;;;9.10;99.90;;;;;;4963890;28;20454;-72
2022/12/26 13:18:37;;;;;;;1.33;0.90;;;9.10;99.90;;;;;;4960541;28;20438;-73
2022/12/26 13:21:10;;;;;;;1.60;0.70;;;9.10;99.90;;;;;;4963699;28;20465;-72
2022/12/26 13:26:35;;;;;;;0.93;0.67;;;9.10;99.90;;;;;;4958326;28;20522;-72
2022/12/26 13:29:16;;;;;;;1.73;0.90;;;9.10;99.90;;;;;;4960037;28;20852;-72
2022/12/26 13:31:45;;;;;;;0.90;0.57;;;9.10;99.90;;;;;;4960906;28;20475;-72
2022/12/26 13:34:18;;;;;;;2.10;0.83;;;9.10;99.90;;;;;;4963113;28;20483;-72
2022/12/26 13:36:48;;;;;;;0.90;0.70;;;9.10;99.90;;;;;;4962856;28;20953;-72
2022/12/26 13:46:55;;;;;;;2.30;0.90;;;9.10;99.90;;;;;;4968161;23;20493;-46
2022/12/26 13:49:36;;;;;;;1.23;1.00;;;9.10;99.90;;;;;;4945920;28;20452;-46
2022/12/26 13:57:50;;;;;;;0.93;0.83;;;9.10;99.90;;;;;;4963286;28;20431;-46
2022/12/26 14:00:23;;;;;;;1.10;0.57;;;9.10;99.90;;;;;;4961472;28;20545;-46
2022/12/26 14:03:38;;;;;;;1.17;0.90;;;9.10;99.90;;;;;;4955408;28;20454;-45
2022/12/26 14:06:51;;;;;;;3.13;1.20;;;9.10;99.90;;;;;;4953598;28;20463;-45
2022/12/26 14:09:49;;;;;;;1.53;0.97;;;9.10;99.90;;;;;;4963117;28;20462;-46
2022/12/26 14:12:46;;;;;;;2.87;0.97;;;9.10;99.90;;;;;;4965603;28;20526;-45
2022/12/26 14:15:26;;;;;;;1.10;0.90;;;9.10;99.90;;;;;;4956366;28;20927;-45
2022/12/26 14:18:08;;;;;;;1.63;0.70;;;9.10;99.90;;;;;;4963098;28;21069;-46
2022/12/26 14:20:43;;;;;;;1.90;0.93;;;9.10;99.90;;;;;;4949832;28;20481;-46
2022/12/26 14:23:38;;;;;;;0.90;0.70;;;9.10;99.90;;;;;;4959945;28;20450;-45
2022/12/26 14:26:19;;;;;;;1.17;0.77;;;9.10;99.90;;;;;;4960792;28;20589;-46
2022/12/26 14:28:58;;;;;;;1.27;0.90;;;9.10;99.90;;;;;;4964555;28;21069;-46
2022/12/26 14:31:34;;;;;;;1.73;0.87;;;9.10;99.90;;;;;;4941264;28;20463;-47
2022/12/26 14:34:17;;;;;;;0.90;0.80;;;9.10;99.90;;;;;;4957288;28;21021;-46
2022/12/26 14:36:52;;;;;;;1.73;1.10;;;9.10;99.90;;;;;;4962244;28;20505;-44
2022/12/26 14:39:34;;;;;;;1.77;0.77;;;9.10;99.90;;;;;;4963945;28;21069;-46
2022/12/26 14:45:12;;;;;;;1.13;0.80;;;9.10;99.90;;;;;;4943331;28;20629;-45
2022/12/26 14:47:43;;;;;;;1.83;1.03;;;9.10;99.90;;;;;;4964974;28;20548;-46
2022/12/26 14:50:35;;;;;;;1.50;1.00;;;9.10;99.90;;;;;;4957256;28;20480;-45
2022/12/26 14:53:32;;;;;;;0.93;0.90;;;9.10;99.90;;;;;;4943805;28;20479;-47
2022/12/26 14:56:31;;;;;;;0.80;0.80;;;9.10;99.90;;;;;;4931725;28;20475;-45
2022/12/26 14:59:26;;;;;;;1.00;0.80;;;9.10;99.90;;;;;;4931062;29;20470;-46
2022/12/26 15:02:11;;;;;;;1.30;1.10;;;9.00;99.90;;;;;;4944928;28;20995;-46
2022/12/26 15:05:10;;;;;;;0.97;0.87;;;9.00;99.90;;;;;;4936851;28;20877;-45
2022/12/26 15:08:12;;;;;;;1.00;0.90;;;9.10;99.90;;;;;;4887154;29;20494;-46
2022/12/26 15:11:14;;;;;;;0.90;0.80;;;9.00;99.90;;;;;;4943302;29;20483;-45
2022/12/26 15:14:13;;;;;;;2.00;0.93;;;9.00;99.90;;;;;;4921842;29;20519;-45
2022/12/26 15:16:54;;;;;;;1.47;0.70;;;9.00;99.90;;;;;;4927389;29;20482;-46
2022/12/26 15:20:09;;;;;;;3.73;1.30;;;9.00;99.90;;;;;;4934501;28;20508;-46
2022/12/26 15:23:07;;;;;;;1.23;0.80;;;9.10;99.90;;;;;;4967850;28;20454;-45
2022/12/26 15:26:01;;;;;;;1.70;0.87;;;9.00;99.90;;;;;;4949789;28;20483;-46
2022/12/26 15:29:01;;;;;;;0.80;0.80;;;9.10;99.90;;;;;;4946523;28;20509;-45
2022/12/26 15:31:49;;;;;;;1.53;1.03;;;9.10;99.90;;;;;;4939969;28;20813;-46
2022/12/26 15:34:47;;;;;;;4.93;1.07;;;9.10;99.90;;;;;;4941322;28;20818;-46
2022/12/26 15:37:31;;;;;;;3.30;2.13;;;9.10;99.90;;;;;;4946717;28;20853;-47
2022/12/26 15:40:13;;;;;;;1.37;1.10;;;9.10;99.90;;;;;;4957809;28;20573;-46
2022/12/26 15:43:18;;;;;;;3.13;1.37;;;9.10;99.90;;;;;;4931822;29;20547;-46
2022/12/26 15:45:49;;;;;;;1.00;0.83;;;9.00;99.90;;;;;;4930645;29;20541;-46
2022/12/26 15:48:32;;;;;;;1.33;0.83;;;9.00;99.90;;;;;;4937533;28;20813;-46
2022/12/26 15:51:06;;;;;;;1.20;1.10;;;9.00;99.90;;;;;;4933226;29;20574;-46
2022/12/26 15:53:47;;;;;;;1.47;1.10;;;9.00;99.90;;;;;;4929143;29;20888;-47
2022/12/26 15:56:51;;;;;;;1.13;0.77;;;9.00;99.90;;;;;;4938589;29;20447;-46
2022/12/26 16:00:00;;;;;;;2.40;0.97;;;9.00;99.90;;;;;;4906123;29;21020;-44
2022/12/26 16:02:45;;;;;;;1.47;0.93;;;9.00;99.90;;;;;;4942429;29;20435;-49
2022/12/26 16:05:33;;;;;;;1.47;1.10;;;9.00;99.90;;;;;;4928284;28;20970;-46
2022/12/26 16:08:26;;;;;;;2.20;1.10;;;9.00;99.90;;;;;;4932971;29;20482;-45
2022/12/26 16:11:13;;;;;;;0.67;0.67;;;9.10;99.90;;;;;;4970615;28;20521;-46
2022/12/26 16:13:50;;;;;;;1.57;0.90;;;9.00;99.90;;;;;;4969720;28;20882;-45
2022/12/26 16:16:31;;;;;;;1.10;0.90;;;9.00;99.90;;;;;;4952811;28;20506;-46
2022/12/26 16:19:16;;;;;;;0.97;0.87;;;9.00;99.90;;;;;;4963514;28;20524;-46
2022/12/26 16:24:38;;;;;;;1.20;1.10;;;9.00;99.90;;;;;;4959733;28;20844;-46
2022/12/26 16:27:09;;;;;;;1.63;1.23;;;9.10;99.90;;;;;;4962258;28;20467;-47
2022/12/26 16:29:45;;;;;;;2.50;1.00;;;9.00;99.90;;;;;;4940079;28;21016;-46
2022/12/26 16:32:17;;;;;;;2.33;0.97;;;9.00;99.90;;;;;;4956468;28;20475;-47
2022/12/26 16:34:47;;;;;;;1.53;0.90;;;9.00;99.90;;;;;;4948752;28;20460;-47
2022/12/26 16:37:19;;;;;;;1.20;0.83;;;9.00;99.90;;;;;;4965171;28;20455;-46
2022/12/26 16:40:07;;;;;;;1.67;0.97;;;9.00;99.90;;;;;;4930479;28;20602;-46
2022/12/26 16:42:42;;;;;;;0.93;0.70;;;9.00;99.90;;;;;;4949829;28;21011;-46
2022/12/26 16:45:17;;;;;;;1.80;1.00;;;9.10;99.90;;;;;;4967786;28;20567;-46
2022/12/26 16:47:47;;;;;;;1.30;0.80;;;9.00;99.90;;;;;;4940529;28;20554;-47
2022/12/26 16:50:18;;;;;;;1.33;1.13;;;9.00;99.90;;;;;;4948179;28;20522;-47
2022/12/26 16:52:48;;;;;;;1.33;1.03;;;9.00;99.90;;;;;;4956142;28;20530;-46
2022/12/26 16:55:35;;;;;;;1.37;0.97;;;9.00;99.90;;;;;;4966645;28;20978;-46
2022/12/26 16:58:13;;;;;;;1.70;0.97;;;9.00;99.90;;;;;;4949751;28;20918;-47
2022/12/26 17:01:04;;;;;;;2.33;0.77;;;9.00;99.90;;;;;;4953189;28;20538;-45
2022/12/26 17:03:41;;;;;;;1.10;1.00;;;9.00;99.90;;;;;;4936887;29;20522;-47
2022/12/26 17:06:15;;;;;;;1.77;0.90;;;9.00;99.90;;;;;;4955560;28;20444;-46
2022/12/26 17:08:48;;;;;;;2.27;1.00;;;9.00;99.90;;;;;;4939144;28;20564;-47
2022/12/26 17:11:17;;;;;;;1.10;0.87;;;9.00;99.90;;;;;;4954392;28;21011;-45
2022/12/26 17:13:52;;;;;;;0.87;0.87;;;9.00;99.90;;;;;;4933717;29;20451;-47
2022/12/26 17:16:24;;;;;;;1.27;1.00;;;9.00;99.90;;;;;;4957235;28;20521;-46
2022/12/26 17:18:54;;;;;;;3.17;1.00;;;9.00;99.90;;;;;;4935534;28;20476;-46
2022/12/26 17:21:29;;;;;;;1.20;1.10;;;9.00;99.90;;;;;;4942817;28;20436;-47
2022/12/26 17:24:26;;;;;;;2.70;1.27;;;9.00;99.90;;;;;;4936049;29;20455;-47
2022/12/26 17:27:17;;;;;;;2.07;1.50;;;9.00;99.90;;;;;;4955116;28;20521;-48
2022/12/26 17:29:55;;;;;;;2.33;1.27;;;9.00;99.90;;;;;;4935638;28;20872;-46
2022/12/26 17:32:30;;;;;;;4.00;1.70;;;9.00;99.90;;;;;;4967452;28;20468;-47
2022/12/26 17:35:05;;;;;;;1.20;1.10;;;9.00;99.90;;;;;;4955438;28;20467;-48
2022/12/26 17:37:33;;;;;;;1.63;1.53;;;9.00;99.90;;;;;;4961095;28;20493;-46
2022/12/26 17:40:19;;;;;;;1.57;1.10;;;9.00;99.90;;;;;;4936340;28;20507;-46
2022/12/26 17:42:50;;;;;;;2.20;1.50;;;9.00;99.90;;;;;;4936693;29;20444;-48
2022/12/26 17:45:21;;;;;;;1.10;1.00;;;9.00;99.90;;;;;;4945846;28;20513;-46
2022/12/26 17:47:51;;;;;;;2.60;1.40;;;9.00;99.90;;;;;;4947251;28;20474;-47
2022/12/26 17:50:20;;;;;;;1.83;1.10;;;9.00;99.90;;;;;;4945816;28;20482;-48
2022/12/26 17:52:49;;;;;;;1.20;1.10;;;9.00;99.90;;;;;;4932259;29;20472;-47
2022/12/26 17:55:24;;;;;;;1.87;1.53;;;9.00;99.90;;;;;;4950866;28;20472;-46
2022/12/26 17:57:53;;;;;;;4.20;1.43;;;9.00;99.90;;;;;;4947671;28;20964;-46
2022/12/26 18:00:24;;;;;;;3.53;1.40;;;9.00;99.90;;;;;;4938631;28;20575;-46
2022/12/26 18:02:53;;;;;;;2.77;2.00;;;9.00;99.90;;;;;;4930437;29;20442;-47
2022/12/26 18:05:22;;;;;;;1.37;1.27;;;9.00;99.90;;;;;;4943811;28;20550;-45
2022/12/26 18:07:52;;;;;;;2.60;1.43;;;9.00;99.90;;;;;;4934655;29;20483;-47
2022/12/26 18:10:24;;;;;;;1.30;1.20;;;9.00;99.90;;;;;;4956986;28;20485;-48
2022/12/26 18:12:53;;;;;;;2.30;1.27;;;9.00;99.90;;;;;;4937606;28;20470;-48
2022/12/26 18:15:22;;;;;;;1.30;1.20;;;9.00;99.90;;;;;;4928801;29;20486;-46
2022/12/26 18:17:52;;;;;;;1.83;1.10;;;9.00;99.90;;;;;;4947530;29;20475;-47
2022/12/26 18:20:23;;;;;;;2.83;1.47;;;9.00;99.90;;;;;;4936284;28;20470;-47
2022/12/26 18:22:52;;;;;;;2.90;1.30;;;9.00;99.90;;;;;;4938841;28;20447;-47
2022/12/26 18:25:26;;;;;;;1.47;1.17;;;9.00;99.90;;;;;;4948414;28;20920;-47
2022/12/26 18:27:55;;;;;;;2.23;1.10;;;9.00;99.90;;;;;;4952514;28;20504;-46
2022/12/26 18:30:25;;;;;;;1.33;1.23;;;9.00;99.90;;;;;;4941050;28;20508;-46
2022/12/26 18:32:54;;;;;;;1.70;1.40;;;9.00;99.90;;;;;;4916096;29;20484;-46
2022/12/26 18:35:23;;;;;;;3.60;1.30;;;9.00;99.90;;;;;;4951955;28;20843;-45
2022/12/26 18:37:53;;;;;;;4.30;1.70;;;9.00;99.90;;;;;;4961599;28;20474;-47
2022/12/26 18:40:29;;;;;;;3.93;1.40;;;9.00;99.90;;;;;;4952602;28;20479;-46
2022/12/26 18:42:58;;;;;;;4.50;1.40;;;9.00;99.90;;;;;;4956524;28;20445;-46
2022/12/26 18:45:27;;;;;;;1.77;1.60;;;9.00;99.90;;;;;;4931233;29;20543;-46
2022/12/26 18:47:56;;;;;;;1.40;0.90;;;9.00;99.90;;;;;;4938180;29;20448;-47
2022/12/26 18:50:26;;;;;;;1.63;1.13;;;9.00;99.90;;;;;;4939428;28;20478;-48
2022/12/26 18:52:54;;;;;;;2.63;1.50;;;9.00;99.90;;;;;;4941946;29;20509;-47
2022/12/26 18:55:24;;;;;;;1.80;1.30;;;9.00;99.90;;;;;;4948878;28;20554;-47
2022/12/26 18:57:54;;;;;;;2.03;1.47;;;9.00;99.90;;;;;;4950263;28;20470;-47
2022/12/26 19:00:23;;;;;;;1.53;1.07;;;9.00;99.90;;;;;;4957239;28;20483;-47
2022/12/26 19:02:54;;;;;;;4.50;1.23;;;9.00;99.90;;;;;;4946010;28;20447;-47
2022/12/26 19:05:26;;;;;;;1.40;1.23;;;9.00;99.90;;;;;;4949521;28;20471;-47
2022/12/26 19:07:55;;;;;;;1.80;1.40;;;8.90;99.90;;;;;;4956179;28;20474;-47
2022/12/26 19:10:26;;;;;;;1.90;1.40;;;8.90;99.90;;;;;;4962775;28;20975;-46
2022/12/26 19:12:58;;;;;;;4.27;1.00;;;8.90;99.90;;;;;;4957475;28;20485;-47
2022/12/26 19:15:33;;;;;;;2.57;1.20;;;9.00;99.90;;;;;;4965887;28;20474;-46
2022/12/26 19:18:02;;;;;;;1.30;1.20;;;8.90;99.90;;;;;;4949212;28;20632;-46
2022/12/26 19:20:31;;;;;;;1.50;1.20;;;8.90;99.90;;;;;;4967989;28;20481;-46
2022/12/26 19:23:00;;;;;;;1.47;1.17;;;8.90;99.90;;;;;;4952396;28;20775;-48
2022/12/26 19:25:28;;;;;;;1.67;1.40;;;8.90;99.90;;;;;;4945107;28;20476;-47
2022/12/26 19:27:58;;;;;;;4.03;1.10;;;8.90;99.90;;;;;;4953205;28;20483;-46
2022/12/26 19:30:27;;;;;;;1.90;1.20;;;8.90;99.90;;;;;;4943878;28;20566;-47
2022/12/26 19:33:00;;;;;;;1.97;1.10;;;8.90;99.90;;;;;;4949015;28;20546;-46
2022/12/26 19:35:29;;;;;;;1.33;0.93;;;8.90;99.90;;;;;;4950017;28;20797;-47
2022/12/26 19:37:58;;;;;;;1.60;1.30;;;9.00;99.90;;;;;;4931315;29;20479;-48
2022/12/26 19:40:26;;;;;;;2.40;1.27;;;8.90;99.90;;;;;;4938398;29;20477;-46
2022/12/26 19:42:55;;;;;;;2.33;1.50;;;8.90;99.90;;;;;;4938268;29;20466;-45
2022/12/26 19:45:25;;;;;;;2.67;1.53;;;8.90;99.90;;;;;;4942883;29;20486;-47
2022/12/26 19:47:53;;;;;;;3.50;1.27;;;8.90;99.90;;;;;;4933293;29;20864;-47
2022/12/26 19:50:22;;;;;;;1.40;1.13;;;8.90;99.90;;;;;;4949286;28;20625;-46
2022/12/26 19:52:50;;;;;;;2.23;1.00;;;9.00;99.90;;;;;;4933294;29;20523;-47
2022/12/26 19:55:19;;;;;;;1.70;1.00;;;8.90;99.90;;;;;;4944528;28;20837;-48
2022/12/26 19:57:48;;;;;;;4.70;1.10;;;8.90;99.90;;;;;;4941136;28;20462;-47
2022/12/26 20:00:17;;;;;;;1.30;1.10;;;8.90;99.90;;;;;;4929157;28;20925;-48
2022/12/26 20:02:46;;;;;;;3.37;1.30;;;8.90;99.90;;;;;;4943283;28;20537;-46
2022/12/26 20:05:15;;;;;;;1.77;1.10;;;8.90;99.90;;;;;;4935529;28;20527;-47
2022/12/26 20:07:44;;;;;;;1.50;1.10;;;8.90;99.90;;;;;;4930457;28;20468;-47
2022/12/26 20:10:13;;;;;;;2.17;1.33;;;8.90;99.90;;;;;;4942200;28;20534;-47
2022/12/26 20:12:41;;;;;;;1.10;1.00;;;8.90;99.90;;;;;;4958728;28;20467;-48
2022/12/26 20:15:10;;;;;;;2.43;1.00;;;8.90;99.90;;;;;;4931474;29;21063;-47
2022/12/26 20:17:39;;;;;;;1.60;1.40;;;8.90;99.90;;;;;;4943441;29;21016;-48
2022/12/26 20:20:10;;;;;;;1.97;1.10;;;8.90;99.90;;;;;;4918798;29;20483;-46
2022/12/26 20:22:38;;;;;;;2.90;1.17;;;8.90;99.90;;;;;;4928573;29;20821;-47
2022/12/26 20:25:08;;;;;;;11.87;1.40;;;8.90;99.90;;;;;;4943198;28;20470;-47
2022/12/26 20:27:39;;;;;;;1.47;1.10;;;8.90;99.90;;;;;;4951641;28;20463;-47
2022/12/26 20:30:09;;;;;;;1.73;1.10;;;8.90;99.90;;;;;;4935573;29;20482;-47
2022/12/26 20:32:38;;;;;;;0.80;0.80;;;8.90;99.90;;;;;;4932404;29;20448;-46
2022/12/26 20:35:07;;;;;;;1.90;1.20;;;8.90;99.90;;;;;;4932216;29;20472;-47
2022/12/26 20:37:36;;;;;;;1.37;1.13;;;8.90;99.90;;;;;;4931063;29;20469;-47
2022/12/26 20:40:06;;;;;;;1.80;1.17;;;8.90;99.90;;;;;;4950424;28;20642;-47
2022/12/26 20:42:35;;;;;;;1.27;1.10;;;8.90;99.90;;;;;;4959606;28;20478;-47
2022/12/26 20:45:03;;;;;;;2.47;1.50;;;8.90;99.90;;;;;;4945948;28;20576;-46
2022/12/26 20:47:32;;;;;;;3.43;1.40;;;8.90;99.90;;;;;;4958590;28;20467;-45
2022/12/26 20:50:00;;;;;;;2.70;1.40;;;8.90;99.90;;;;;;4936846;28;21020;-47
2022/12/26 20:52:29;;;;;;;3.37;2.00;;;8.90;99.90;;;;;;4934136;29;20480;-46
2022/12/26 20:55:00;;;;;;;1.13;1.03;;;8.90;99.90;;;;;;4922577;29;20807;-48
2022/12/26 20:57:28;;;;;;;4.30;2.00;;;8.80;99.90;;;;;;4944971;28;20474;-47
2022/12/26 20:59:57;;;;;;;1.37;1.00;;;8.80;99.90;;;;;;4945383;28;20913;-49
2022/12/26 21:02:26;;;;;;;4.90;1.40;;;8.80;99.90;;;;;;4943393;29;20466;-46
2022/12/26 21:04:54;;;;;;;1.93;1.10;;;8.80;99.90;;;;;;4938059;28;20480;-46
2022/12/26 21:07:23;;;;;;;1.70;0.87;;;8.80;99.90;;;;;;4965037;28;20473;-46
2022/12/26 21:09:51;;;;;;;3.80;1.20;;;8.80;99.90;;;;;;4957161;28;20984;-46
2022/12/26 21:12:21;;;;;;;1.15;1.05;;;8.80;99.90;;;;;;4965235;28;20447;-48
2022/12/26 21:14:49;;;;;;;1.57;1.33;;;8.80;99.90;;;;;;4939848;28;20227;-47
2022/12/26 21:17:18;;;;;;;1.92;1.15;;;8.80;99.90;;;;;;4965153;28;20843;-47
2022/12/26 21:19:47;;;;;;;3.10;1.00;;;8.80;99.90;;;;;;4935369;28;20214;-48
2022/12/26 21:22:15;;;;;;;2.70;1.20;;;8.80;99.90;;;;;;4946813;28;20466;-46
2022/12/26 21:24:44;;;;;;;3.50;1.17;;;8.80;99.90;;;;;;4948724;28;20794;-46
2022/12/26 21:27:13;;;;;;;2.63;1.33;;;8.80;99.90;;;;;;4960621;28;20444;-46
2022/12/26 21:29:43;;;;;;;1.67;1.10;;;8.80;99.90;;;;;;4938760;29;20487;-47
2022/12/26 21:32:11;;;;;;;1.10;0.93;;;8.80;99.90;;;;;;4952514;28;20530;-47
2022/12/26 21:34:40;;;;;;;2.77;1.70;;;8.80;99.90;;;;;;4953904;28;20538;-47
2022/12/26 21:39:55;;;;;;;2.40;1.13;;;8.80;99.90;;;;;;4941435;28;20555;-47
2022/12/26 21:42:24;;;;;;;1.02;0.90;;;8.80;99.90;;;;;;4945141;28;20737;-47
2022/12/26 21:44:54;;;;;;;2.00;1.17;;;8.80;99.90;;;;;;4931078;28;20228;-46
2022/12/26 21:47:22;;;;;;;2.50;0.90;;;8.80;99.90;;;;;;4942705;28;20455;-48
2022/12/26 21:49:52;;;;;;;4.40;0.73;;;8.80;99.90;;;;;;4944735;28;20463;-46
2022/12/26 21:52:21;;;;;;;4.80;1.10;;;8.80;99.90;;;;;;4930424;29;20452;-48
2022/12/26 21:57:35;;;;;;;2.77;1.10;;;8.80;99.90;;;;;;4927571;29;20467;-47
2022/12/26 22:00:06;;;;;;;2.87;1.10;;;8.80;99.90;;;;;;4929045;28;20483;-47
2022/12/26 22:05:26;;;;;;;2.83;1.23;;;8.80;99.90;;;;;;4940814;28;20486;-46
2022/12/26 22:07:56;;;;;;;1.20;1.00;;;8.80;99.90;;;;;;4946067;28;20535;-47
2022/12/26 22:13:11;;;;;;;1.80;1.33;;;8.80;99.90;;;;;;4951081;28;20436;-49
2022/12/26 22:16:03;;;;;;;0.80;0.70;;;8.80;99.90;;;;;;4930751;29;20483;-46
2022/12/26 22:18:34;;;;;;;2.00;1.60;;;8.80;99.90;;;;;;4923635;29;20448;-46
2022/12/26 22:21:05;;;;;;;1.43;0.90;;;8.70;99.90;;;;;;4949871;28;20443;-46
2022/12/26 22:23:34;;;;;;;1.50;0.90;;;8.70;99.90;;;;;;4932381;29;20447;-46
2022/12/26 22:26:02;;;;;;;2.07;1.30;;;8.80;99.90;;;;;;4934673;29;20752;-47
2022/12/26 22:28:31;;;;;;;1.47;0.90;;;8.70;99.90;;;;;;4931573;29;20463;-46
2022/12/26 22:31:01;;;;;;;1.50;1.10;;;8.70;99.90;;;;;;4947199;28;21020;-47
2022/12/26 22:33:30;;;;;;;2.30;1.10;;;8.70;99.90;;;;;;4928839;29;20192;-47
2022/12/26 22:36:04;;;;;;;2.53;1.10;;;8.70;99.90;;;;;;4952216;28;20479;-46
2022/12/26 22:38:33;;;;;;;1.70;1.07;;;8.70;99.90;;;;;;4947453;28;20459;-46
2022/12/26 22:41:02;;;;;;;1.23;0.90;;;8.70;99.90;;;;;;4932029;28;20443;-46
2022/12/26 22:43:32;;;;;;;1.57;1.00;;;8.70;99.90;;;;;;4943544;28;20452;-46
2022/12/26 22:46:02;;;;;;;2.10;0.80;;;8.70;99.90;;;;;;4944327;28;20557;-46
2022/12/26 22:48:30;;;;;;;2.97;1.10;;;8.70;99.90;;;;;;4953197;28;20809;-47
2022/12/26 22:50:59;;;;;;;1.60;1.47;;;8.70;99.90;;;;;;4946534;28;20467;-47
2022/12/26 22:53:29;;;;;;;1.67;0.95;;;8.70;99.90;;;;;;4933381;28;20562;-47
2022/12/26 22:55:59;;;;;;;1.63;0.90;;;8.70;99.90;;;;;;4945456;28;20512;-46
2022/12/26 22:58:29;;;;;;;3.15;1.15;;;8.70;99.90;;;;;;4962422;28;20466;-47
2022/12/26 23:00:57;;;;;;;1.47;0.87;;;8.70;99.90;;;;;;4947581;28;20219;-47
2022/12/26 23:03:28;;;;;;;1.40;0.98;;;8.70;99.90;;;;;;4946629;28;20782;-46
2022/12/26 23:05:57;;;;;;;1.00;0.90;;;8.70;99.90;;;;;;4921534;28;20228;-46
2022/12/26 23:08:27;;;;;;;2.58;1.10;;;8.70;99.90;;;;;;4927523;29;20463;-47
2022/12/26 23:10:58;;;;;;;2.20;1.13;;;8.70;99.90;;;;;;4946344;28;20227;-47
2022/12/26 23:13:27;;;;;;;1.15;1.05;;;8.70;99.90;;;;;;4942843;29;20848;-47
2022/12/26 23:16:06;;;;;;;1.40;1.23;;;8.70;99.90;;;;;;4941672;29;20267;-46
2022/12/26 23:21:44;;;;;;;1.15;1.05;;;8.70;99.90;;;;;;4939278;29;20852;-48
2022/12/26 23:24:16;;;;;;;1.80;1.00;;;8.60;99.90;;;;;;4937680;29;20201;-46
2022/12/26 23:26:47;;;;;;;1.97;1.00;;;8.60;99.90;;;;;;4949428;28;20210;-47
2022/12/26 23:32:04;;;;;;;1.48;1.23;;;8.70;99.90;;;;;;4930929;29;20674;-47
2022/12/26 23:34:35;;;;;;;1.40;1.13;;;8.60;99.90;;;;;;4945558;29;20314;-46
2022/12/26 23:37:04;;;;;;;2.15;1.25;;;8.60;99.90;;;;;;4953365;28;20200;-47
2022/12/26 23:39:36;;;;;;;1.90;1.10;;;8.60;99.90;;;;;;4954963;28;20227;-46
2022/12/26 23:42:04;;;;;;;2.28;1.10;;;8.60;99.90;;;;;;4940243;28;20676;-47
2022/12/26 23:44:33;;;;;;;1.45;0.90;;;8.70;99.90;;;;;;4940437;29;20288;-47
2022/12/26 23:47:02;;;;;;;3.65;1.15;;;8.60;99.90;;;;;;4934061;28;20223;-47
2022/12/26 23:49:30;;;;;;;1.25;1.05;;;8.60;99.90;;;;;;4948980;28;20255;-46
2022/12/26 23:52:00;;;;;;;1.90;1.30;;;8.60;99.90;;;;;;4933067;29;20549;-47
2022/12/26 23:54:29;;;;;;;3.00;1.20;;;8.60;99.90;;;;;;4944028;28;20696;-47
2022/12/26 23:56:58;;;;;;;1.77;0.85;;;8.60;99.90;;;;;;4945016;29;20455;-45
2022/12/26 23:59:26;;;;;;;1.38;1.20;;;8.60;99.90;;;;;;4948804;29;20272;-47
